Time;durP1;ratioP1;P1;durP2;ratioP2;P2;SDS_P1;SDS_P2;PMS_P1;PMS_P2;Temp;Humidity;BMP_temperature;BMP_pressure;BME280_temperature;BME280_humidity;BME280_pressure;Samples;Min_cycle;Max_cycle;Signal;HPM_P1;HPM_P2
2021/07/21 00:00:14;;;;;;;7.05;4.57;;;21.90;99.90;;;;;;4350978;32;20096;-73
2021/07/21 00:02:40;;;;;;;7.43;5.37;;;21.80;99.90;;;;;;4351783;32;20083;-74
2021/07/21 00:05:09;;;;;;;7.30;5.60;;;21.90;99.90;;;;;;4338784;32;20080;-73
2021/07/21 00:07:35;;;;;;;9.77;5.05;;;21.80;99.90;;;;;;4351095;32;20079;-73
2021/07/21 00:10:03;;;;;;;7.62;5.68;;;21.90;99.90;;;;;;4351810;32;20074;-73
2021/07/21 00:15:15;;;;;;;8.82;5.55;;;21.90;99.90;;;;;;4365134;32;20085;-73
2021/07/21 00:17:43;;;;;;;8.27;5.05;;;21.80;99.90;;;;;;4338134;32;20512;-74
2021/07/21 00:20:10;;;;;;;8.93;5.22;;;21.80;99.90;;;;;;4338341;32;20078;-73
2021/07/21 00:22:45;;;;;;;6.47;4.65;;;21.80;99.90;;;;;;4350985;32;20497;-73
2021/07/21 00:25:15;;;;;;;7.93;4.97;;;21.80;99.90;;;;;;4350784;32;20089;-74
2021/07/21 00:27:42;;;;;;;7.85;4.62;;;21.80;99.90;;;;;;4350534;32;20074;-74
2021/07/21 00:30:11;;;;;;;6.50;4.90;;;21.90;99.90;;;;;;4350628;32;20190;-73
2021/07/21 00:32:37;;;;;;;8.50;4.97;;;21.80;99.90;;;;;;4351037;32;20070;-74
2021/07/21 00:35:06;;;;;;;9.07;4.80;;;21.80;99.90;;;;;;4327126;32;20078;-74
2021/07/21 00:37:33;;;;;;;6.28;4.70;;;21.80;99.90;;;;;;4340420;32;20077;-74
2021/07/21 00:39:59;;;;;;;5.97;4.18;;;21.80;99.90;;;;;;4340235;32;20098;-74
2021/07/21 00:42:26;;;;;;;7.97;4.47;;;21.80;99.90;;;;;;4351474;32;20088;-74
2021/07/21 00:44:53;;;;;;;8.73;5.25;;;21.80;99.90;;;;;;4350637;32;20085;-74
2021/07/21 00:47:20;;;;;;;5.95;4.75;;;21.70;99.90;;;;;;4362880;32;20155;-73
2021/07/21 00:49:46;;;;;;;7.28;5.55;;;21.80;99.90;;;;;;4350545;32;20070;-73
2021/07/21 00:52:12;;;;;;;9.65;5.05;;;21.80;99.90;;;;;;4338328;32;20133;-74
2021/07/21 00:54:39;;;;;;;7.75;4.85;;;21.80;99.90;;;;;;4350341;32;20072;-74
2021/07/21 00:57:06;;;;;;;7.82;5.00;;;21.90;99.90;;;;;;4325692;32;20113;-73
2021/07/21 00:59:33;;;;;;;7.37;4.57;;;21.90;99.90;;;;;;4338309;32;20090;-74
2021/07/21 01:02:00;;;;;;;6.72;5.30;;;21.90;99.90;;;;;;4350723;32;20094;-73
2021/07/21 01:04:29;;;;;;;8.00;5.03;;;21.90;99.90;;;;;;4338348;32;20085;-74
2021/07/21 01:06:56;;;;;;;8.70;4.62;;;21.90;99.90;;;;;;4350484;32;20097;-74
2021/07/21 01:09:22;;;;;;;7.15;5.22;;;22.00;99.90;;;;;;4337704;32;20079;-73
2021/07/21 01:12:37;;;;;;;13.80;5.30;;;22.00;99.90;;;;;;4337804;32;20156;-74
2021/07/21 01:15:14;;;;;;;9.20;4.95;;;22.00;99.90;;;;;;4343640;32;20077;-74
2021/07/21 01:17:51;;;;;;;9.20;5.20;;;22.00;99.90;;;;;;4350238;32;20093;-73
2021/07/21 01:21:10;;;;;;;7.87;5.12;;;21.90;99.90;;;;;;4362585;32;20523;-74
2021/07/21 01:23:45;;;;;;;9.38;5.00;;;21.90;99.90;;;;;;4340940;32;20074;-75
2021/07/21 01:26:26;;;;;;;8.25;5.53;;;21.90;99.90;;;;;;4376224;32;20162;-73
2021/07/21 01:28:53;;;;;;;10.48;5.60;;;21.80;99.90;;;;;;4351397;32;20670;-73
2021/07/21 01:31:34;;;;;;;8.80;4.80;;;21.80;99.90;;;;;;4338399;32;20523;-74
2021/07/21 01:34:00;;;;;;;7.82;4.97;;;21.90;99.90;;;;;;4338763;32;20166;-74
2021/07/21 01:36:32;;;;;;;8.85;5.60;;;21.80;99.90;;;;;;4313463;32;20540;-74
2021/07/21 01:39:03;;;;;;;8.60;5.82;;;21.80;99.90;;;;;;4337971;32;20094;-74
2021/07/21 01:41:34;;;;;;;9.98;5.62;;;21.80;99.90;;;;;;4351871;32;20110;-73
2021/07/21 01:44:20;;;;;;;10.65;5.47;;;21.80;99.90;;;;;;4341262;32;20090;-73
2021/07/21 01:46:49;;;;;;;10.85;5.12;;;21.80;99.90;;;;;;4342910;32;20085;-73
2021/07/21 01:49:15;;;;;;;8.63;5.10;;;21.80;99.90;;;;;;4341217;32;20129;-74
2021/07/21 01:51:42;;;;;;;8.35;5.37;;;21.80;99.90;;;;;;4328355;32;20500;-74
2021/07/21 01:54:09;;;;;;;8.63;5.12;;;22.00;99.90;;;;;;4340872;32;20085;-73
2021/07/21 01:56:36;;;;;;;8.07;5.50;;;22.00;99.90;;;;;;4353385;32;20074;-74
2021/07/21 01:59:04;;;;;;;7.37;5.32;;;22.00;99.90;;;;;;4327961;32;20070;-73
2021/07/21 02:01:30;;;;;;;9.05;5.20;;;22.00;99.90;;;;;;4328316;32;20110;-74
2021/07/21 02:03:58;;;;;;;8.63;5.12;;;22.00;99.90;;;;;;4340928;32;20082;-74
2021/07/21 02:06:25;;;;;;;9.05;5.60;;;22.10;99.90;;;;;;4353018;32;20077;-74
2021/07/21 02:08:55;;;;;;;10.50;5.47;;;22.10;99.90;;;;;;4340255;32;20088;-74
2021/07/21 02:11:21;;;;;;;8.77;5.40;;;22.10;99.90;;;;;;4328603;32;20082;-74
2021/07/21 02:13:49;;;;;;;8.82;5.47;;;22.20;99.90;;;;;;4352657;32;20573;-73
2021/07/21 02:16:15;;;;;;;10.45;5.32;;;22.30;99.90;;;;;;4352593;32;20570;-74
2021/07/21 02:18:41;;;;;;;8.90;5.60;;;22.30;99.90;;;;;;4340133;32;20468;-73
2021/07/21 02:21:08;;;;;;;11.20;6.10;;;22.30;99.90;;;;;;4364897;32;20171;-74
2021/07/21 02:23:34;;;;;;;9.52;5.78;;;22.30;99.90;;;;;;4339933;32;20070;-74
2021/07/21 02:26:01;;;;;;;15.40;5.57;;;22.40;99.90;;;;;;4352253;32;20129;-74
2021/07/21 02:28:29;;;;;;;10.68;5.70;;;22.40;99.90;;;;;;4339945;32;20436;-73
2021/07/21 02:30:57;;;;;;;9.23;5.35;;;22.50;99.90;;;;;;4341006;32;20086;-73
2021/07/21 02:33:32;;;;;;;7.93;5.40;;;22.50;99.90;;;;;;4352198;32;20073;-74
2021/07/21 02:35:59;;;;;;;10.32;5.32;;;22.60;99.90;;;;;;4340719;32;20081;-73
2021/07/21 02:38:26;;;;;;;10.35;5.45;;;22.60;99.90;;;;;;4339827;32;20520;-74
2021/07/21 02:40:52;;;;;;;8.15;5.15;;;22.60;99.90;;;;;;4352312;32;20159;-75
2021/07/21 02:43:18;;;;;;;8.98;5.43;;;22.70;99.90;;;;;;4327288;32;20465;-74
2021/07/21 02:45:45;;;;;;;9.30;5.55;;;22.70;99.90;;;;;;4364568;32;20098;-74
2021/07/21 02:48:11;;;;;;;7.95;5.70;;;22.70;99.90;;;;;;4364407;32;20086;-74
2021/07/21 02:50:38;;;;;;;8.75;5.78;;;22.80;99.90;;;;;;4376852;32;20074;-74
2021/07/21 02:53:11;;;;;;;9.98;5.35;;;22.80;99.90;;;;;;4351980;32;20062;-73
2021/07/21 02:55:48;;;;;;;11.50;5.70;;;22.90;99.90;;;;;;4352373;32;20104;-73
2021/07/21 02:58:45;;;;;;;10.50;5.95;;;23.00;99.90;;;;;;4340371;32;20441;-74
2021/07/21 03:01:13;;;;;;;9.57;5.62;;;23.10;99.90;;;;;;4340220;32;20456;-73
2021/07/21 03:03:41;;;;;;;10.75;6.28;;;23.20;99.90;;;;;;4351950;32;20073;-74
2021/07/21 03:06:08;;;;;;;8.40;5.65;;;23.20;99.90;;;;;;4339649;32;20171;-73
2021/07/21 03:08:34;;;;;;;12.55;6.85;;;23.10;99.90;;;;;;4352321;32;20077;-73
2021/07/21 03:11:01;;;;;;;12.75;6.78;;;23.10;99.90;;;;;;4339853;32;20448;-73
2021/07/21 03:13:42;;;;;;;15.43;7.22;;;23.10;99.90;;;;;;4351971;32;20092;-73
2021/07/21 03:16:10;;;;;;;12.20;6.43;;;23.20;99.90;;;;;;4352965;32;20080;-74
2021/07/21 03:18:36;;;;;;;11.45;5.70;;;23.20;99.90;;;;;;4339316;32;20118;-73
2021/07/21 03:21:02;;;;;;;8.63;4.95;;;23.30;99.90;;;;;;4348689;32;20081;-74
2021/07/21 03:23:29;;;;;;;7.32;4.87;;;23.40;99.90;;;;;;4336925;32;20081;-73
2021/07/21 03:25:58;;;;;;;9.02;5.25;;;23.40;99.90;;;;;;4324680;32;20165;-74
2021/07/21 03:28:25;;;;;;;8.57;4.97;;;23.50;99.90;;;;;;4349471;32;20095;-74
2021/07/21 03:30:52;;;;;;;6.90;5.10;;;23.60;99.90;;;;;;4349016;32;20075;-74
2021/07/21 03:33:19;;;;;;;9.40;5.10;;;23.60;99.90;;;;;;4336641;32;20172;-74
2021/07/21 03:35:45;;;;;;;8.73;4.95;;;23.70;99.90;;;;;;4349247;32;20528;-74
2021/07/21 03:38:12;;;;;;;9.75;5.72;;;23.70;99.90;;;;;;4348998;32;20081;-74
2021/07/21 03:40:38;;;;;;;10.07;5.70;;;23.60;99.90;;;;;;4336699;32;20075;-74
2021/07/21 03:43:04;;;;;;;8.93;5.18;;;23.70;99.90;;;;;;4348905;32;20085;-74
2021/07/21 03:45:30;;;;;;;8.23;5.87;;;23.60;99.90;;;;;;4349042;32;20162;-72
2021/07/21 03:47:57;;;;;;;8.40;5.72;;;23.60;99.90;;;;;;4336805;32;20075;-73
2021/07/21 03:50:23;;;;;;;7.65;5.10;;;23.70;99.90;;;;;;4348726;32;20198;-74
2021/07/21 03:52:50;;;;;;;7.32;5.18;;;23.80;99.90;;;;;;4348911;32;20085;-74
2021/07/21 03:55:18;;;;;;;7.62;4.60;;;23.90;99.90;;;;;;4349055;32;20092;-74
2021/07/21 03:57:44;;;;;;;10.68;6.12;;;23.90;99.90;;;;;;4348931;32;20110;-74
2021/07/21 04:00:16;;;;;;;10.25;6.60;;;23.90;99.90;;;;;;4348818;32;20098;-74
2021/07/21 04:02:45;;;;;;;9.13;6.25;;;23.90;99.90;;;;;;4336167;32;20162;-74
2021/07/21 04:05:15;;;;;;;10.77;5.93;;;23.90;99.90;;;;;;4348315;32;20079;-74
2021/07/21 04:07:42;;;;;;;7.97;6.07;;;24.00;99.90;;;;;;4324802;32;20078;-74
2021/07/21 04:10:09;;;;;;;8.35;6.20;;;24.00;99.90;;;;;;4348714;32;20075;-74
2021/07/21 04:12:59;;;;;;;8.85;5.95;;;24.10;99.90;;;;;;4348405;32;20152;-72
2021/07/21 04:15:25;;;;;;;10.85;6.95;;;24.10;99.90;;;;;;4348954;32;20497;-74
2021/07/21 04:17:52;;;;;;;10.30;6.25;;;24.10;99.90;;;;;;4348133;32;20512;-74
2021/07/21 04:20:19;;;;;;;12.82;6.93;;;24.20;99.90;;;;;;4348252;32;20087;-73
2021/07/21 04:22:46;;;;;;;9.50;6.97;;;24.30;99.90;;;;;;4336097;32;20143;-75
2021/07/21 04:25:13;;;;;;;8.80;6.50;;;24.30;99.90;;;;;;4323384;32;20097;-74
2021/07/21 04:27:41;;;;;;;11.63;5.78;;;24.30;99.90;;;;;;4335914;32;20525;-74
2021/07/21 04:30:08;;;;;;;10.45;6.18;;;24.60;99.90;;;;;;4323870;32;20089;-74
2021/07/21 04:32:34;;;;;;;9.50;6.70;;;24.60;99.90;;;;;;4324075;32;20496;-74
2021/07/21 04:35:00;;;;;;;9.32;6.03;;;24.60;99.90;;;;;;4336561;32;20085;-74
2021/07/21 04:37:26;;;;;;;10.88;5.95;;;24.60;99.90;;;;;;4323758;32;20456;-74
2021/07/21 04:39:54;;;;;;;9.70;6.20;;;25.00;99.90;;;;;;4335363;32;20494;-73
2021/07/21 04:42:20;;;;;;;9.73;5.85;;;26.90;99.90;;;;;;4323612;32;20472;-74
2021/07/21 04:44:46;;;;;;;8.63;5.50;;;28.00;99.90;;;;;;4323538;32;20182;-73
2021/07/21 04:47:13;;;;;;;8.57;5.68;;;28.20;99.90;;;;;;4347839;32;20090;-73
2021/07/21 04:49:41;;;;;;;10.60;7.05;;;28.10;99.90;;;;;;4335921;32;20082;-73
2021/07/21 04:52:07;;;;;;;10.50;7.03;;;27.60;99.90;;;;;;4311724;32;20078;-73
2021/07/21 04:54:34;;;;;;;10.68;6.93;;;27.50;99.90;;;;;;4335869;32;20508;-77
2021/07/21 04:57:00;;;;;;;9.35;5.62;;;28.00;99.90;;;;;;4305248;32;20075;-71
2021/07/21 04:59:27;;;;;;;8.90;6.55;;;28.00;99.90;;;;;;4314688;33;20055;-72
2021/07/21 05:01:53;;;;;;;8.82;6.37;;;27.70;99.90;;;;;;4327696;33;20168;-72
2021/07/21 05:04:19;;;;;;;9.68;6.70;;;28.50;99.90;;;;;;4321920;32;20079;-71
2021/07/21 05:06:46;;;;;;;8.57;6.50;;;28.20;99.90;;;;;;4335289;32;20073;-72
2021/07/21 05:09:13;;;;;;;12.65;6.87;;;28.40;99.90;;;;;;4332485;32;20081;-73
2021/07/21 05:11:39;;;;;;;12.13;7.28;;;28.80;99.90;;;;;;4346533;33;20105;-74
2021/07/21 05:14:06;;;;;;;11.50;6.85;;;30.10;99.90;;;;;;4336532;32;20078;-73
2021/07/21 05:16:33;;;;;;;13.25;7.37;;;29.30;99.90;;;;;;4312183;32;20489;-73
2021/07/21 05:18:59;;;;;;;8.40;6.65;;;27.70;99.90;;;;;;4330526;32;20073;-68
2021/07/21 05:21:27;;;;;;;11.05;7.43;;;28.30;99.90;;;;;;4342745;32;20152;-71
2021/07/21 05:23:53;;;;;;;8.80;6.90;;;28.00;99.90;;;;;;4332036;32;20520;-72
2021/07/21 05:26:20;;;;;;;9.40;6.20;;;28.80;99.90;;;;;;4347933;32;20090;-70
2021/07/21 05:28:46;;;;;;;9.75;6.60;;;29.70;99.90;;;;;;4331110;32;20105;-69
2021/07/21 05:31:13;;;;;;;8.60;6.87;;;28.70;99.90;;;;;;4331167;32;20168;-67
2021/07/21 05:33:40;;;;;;;9.07;6.55;;;28.70;99.90;;;;;;4312709;32;20090;-68
2021/07/21 05:36:06;;;;;;;12.15;7.40;;;29.10;99.90;;;;;;4339797;32;20105;-71
2021/07/21 05:38:32;;;;;;;8.65;6.40;;;28.10;99.90;;;;;;4340597;32;20513;-71
2021/07/21 05:40:59;;;;;;;8.20;6.40;;;28.70;99.90;;;;;;4331272;32;20094;-71
2021/07/21 05:43:29;;;;;;;8.82;7.12;;;29.10;99.90;;;;;;4344559;32;20077;-73
2021/07/21 05:45:55;;;;;;;10.77;6.78;;;30.40;99.90;;;;;;4343936;32;20581;-71
2021/07/21 05:48:22;;;;;;;10.90;7.12;;;28.30;99.90;;;;;;4334140;33;20078;-72
2021/07/21 05:50:48;;;;;;;9.32;7.05;;;26.90;99.90;;;;;;4320967;32;20066;-70
2021/07/21 05:53:14;;;;;;;10.80;6.45;;;26.60;99.90;;;;;;4331652;33;20087;-71
2021/07/21 05:55:41;;;;;;;10.70;6.72;;;28.40;99.90;;;;;;4342819;32;20166;-71
2021/07/21 05:58:08;;;;;;;8.90;6.65;;;27.20;99.90;;;;;;4344962;32;20067;-70
2021/07/21 06:00:35;;;;;;;13.40;7.57;;;27.60;99.90;;;;;;4319953;32;20093;-73
2021/07/21 06:03:01;;;;;;;10.02;6.95;;;28.70;99.90;;;;;;4339753;32;20067;-73
2021/07/21 06:05:27;;;;;;;11.12;7.60;;;28.60;99.90;;;;;;4331255;32;20082;-73
2021/07/21 06:07:54;;;;;;;9.48;6.93;;;29.10;99.60;;;;;;4327329;32;20164;-72
2021/07/21 06:10:20;;;;;;;9.18;6.82;;;28.30;99.90;;;;;;4329241;32;20504;-71
2021/07/21 06:12:46;;;;;;;9.85;7.68;;;29.60;97.00;;;;;;4339693;32;20511;-71
2021/07/21 06:15:13;;;;;;;9.98;7.47;;;27.70;99.90;;;;;;4327508;33;20166;-71
2021/07/21 06:17:39;;;;;;;9.43;7.53;;;28.10;99.90;;;;;;4298217;32;20066;-71
2021/07/21 06:20:07;;;;;;;9.85;6.70;;;27.70;99.10;;;;;;4333277;33;20082;-75
2021/07/21 06:22:38;;;;;;;10.45;6.50;;;29.30;95.90;;;;;;4311162;32;20106;-73
2021/07/21 06:25:07;;;;;;;8.77;6.60;;;29.80;90.40;;;;;;4294219;32;20067;-71
2021/07/21 06:27:34;;;;;;;11.75;7.20;;;30.10;91.20;;;;;;4321322;32;20056;-70
2021/07/21 06:30:06;;;;;;;10.63;7.15;;;30.10;89.00;;;;;;4347373;32;20086;-68
2021/07/21 06:32:39;;;;;;;9.50;6.40;;;29.40;91.50;;;;;;4341109;33;20438;-70
2021/07/21 06:35:07;;;;;;;11.32;7.15;;;29.00;94.40;;;;;;4318641;33;20486;-68
2021/07/21 06:37:33;;;;;;;9.23;6.70;;;28.10;94.30;;;;;;4321128;32;20076;-69
2021/07/21 06:39:59;;;;;;;10.75;6.25;;;27.80;96.90;;;;;;4307252;32;20456;-71
2021/07/21 06:42:26;;;;;;;11.60;6.87;;;28.10;94.80;;;;;;4333271;32;20131;-72
2021/07/21 06:44:53;;;;;;;9.60;5.60;;;28.10;94.60;;;;;;4331328;32;20079;-71
2021/07/21 06:47:20;;;;;;;9.40;6.12;;;28.70;94.80;;;;;;4334185;32;20168;-71
2021/07/21 06:49:48;;;;;;;10.65;6.35;;;27.90;94.00;;;;;;4335542;32;20110;-73
2021/07/21 06:52:18;;;;;;;9.13;6.40;;;28.00;93.40;;;;;;4314740;32;20308;-72
2021/07/21 06:54:44;;;;;;;10.38;6.28;;;27.60;96.20;;;;;;4328838;32;20154;-71
2021/07/21 06:57:11;;;;;;;8.27;6.37;;;27.40;97.40;;;;;;4328414;32;20078;-70
2021/07/21 06:59:39;;;;;;;8.88;6.28;;;27.40;97.80;;;;;;4328688;32;20192;-70
2021/07/21 07:02:06;;;;;;;11.07;6.95;;;28.10;96.00;;;;;;4334869;32;20086;-64
2021/07/21 07:04:32;;;;;;;9.05;6.62;;;27.80;95.10;;;;;;4315356;32;20063;-68
2021/07/21 07:06:59;;;;;;;10.73;6.18;;;27.80;99.50;;;;;;4324281;33;20135;-67
2021/07/21 07:09:25;;;;;;;9.77;6.80;;;27.70;98.30;;;;;;4343785;33;20089;-67
2021/07/21 07:11:52;;;;;;;9.68;6.55;;;27.60;99.90;;;;;;4336725;33;20098;-65
2021/07/21 07:14:19;;;;;;;8.43;6.75;;;27.70;98.00;;;;;;4320043;32;20132;-65
2021/07/21 07:16:45;;;;;;;10.20;6.97;;;27.60;95.10;;;;;;4315678;32;20079;-63
2021/07/21 07:19:12;;;;;;;9.90;6.30;;;28.10;93.90;;;;;;4310683;32;20097;-64
2021/07/21 07:21:39;;;;;;;9.98;6.05;;;28.00;88.30;;;;;;4350886;32;20094;-67
2021/07/21 07:24:08;;;;;;;12.40;7.10;;;28.30;78.50;;;;;;4325589;32;20055;-65
2021/07/21 07:26:35;;;;;;;9.82;6.80;;;28.10;87.10;;;;;;4334444;32;20082;-65
2021/07/21 07:29:02;;;;;;;9.13;6.62;;;28.30;90.00;;;;;;4329024;32;20067;-63
2021/07/21 07:31:29;;;;;;;9.90;6.87;;;28.60;89.10;;;;;;4328400;32;20062;-63
2021/07/21 07:33:55;;;;;;;8.27;6.57;;;28.50;90.70;;;;;;4332631;33;20158;-66
2021/07/21 07:36:23;;;;;;;9.82;7.30;;;28.00;88.70;;;;;;4320745;32;20114;-64
2021/07/21 07:38:50;;;;;;;9.15;7.18;;;27.50;90.60;;;;;;4310548;32;20535;-64
2021/07/21 07:41:17;;;;;;;9.65;6.87;;;27.50;92.90;;;;;;4316167;32;20074;-70
2021/07/21 07:43:43;;;;;;;9.98;6.80;;;27.60;90.10;;;;;;4336378;32;20078;-67
2021/07/21 07:46:09;;;;;;;9.32;6.85;;;28.00;84.10;;;;;;4333541;32;20470;-64
2021/07/21 07:48:36;;;;;;;11.07;7.60;;;27.70;82.30;;;;;;4322948;32;20082;-65
2021/07/21 07:51:02;;;;;;;10.82;7.30;;;27.70;83.00;;;;;;4331264;32;20082;-69
2021/07/21 07:53:29;;;;;;;10.65;6.60;;;27.60;78.50;;;;;;4298905;32;20167;-66
2021/07/21 07:55:55;;;;;;;9.55;6.50;;;27.70;66.50;;;;;;4320200;33;20441;-64
2021/07/21 07:58:21;;;;;;;12.43;6.62;;;28.00;63.30;;;;;;4330230;32;20086;-70
2021/07/21 08:00:48;;;;;;;10.48;6.75;;;27.50;60.70;;;;;;4333938;32;20490;-67
2021/07/21 08:03:14;;;;;;;10.48;7.10;;;27.60;63.50;;;;;;4327439;32;20122;-72
2021/07/21 08:05:42;;;;;;;10.57;6.20;;;27.70;59.60;;;;;;4326674;32;20147;-64
2021/07/21 08:08:08;;;;;;;9.07;5.78;;;28.00;57.50;;;;;;4345526;32;20089;-65
2021/07/21 08:10:34;;;;;;;8.10;5.93;;;28.10;50.10;;;;;;4320329;32;20174;-68
2021/07/21 08:13:00;;;;;;;9.68;5.87;;;27.70;58.50;;;;;;4351478;32;20470;-67
2021/07/21 08:15:27;;;;;;;8.82;6.45;;;28.10;56.60;;;;;;4316481;32;20515;-65
2021/07/21 08:17:53;;;;;;;8.40;6.07;;;28.00;58.00;;;;;;4314953;32;20083;-63
2021/07/21 08:20:20;;;;;;;8.73;6.43;;;28.10;59.00;;;;;;4350518;32;20169;-66
2021/07/21 08:22:47;;;;;;;9.30;6.30;;;28.10;62.10;;;;;;4347322;32;20062;-65
2021/07/21 08:25:16;;;;;;;9.50;6.55;;;28.10;61.00;;;;;;4333746;32;20434;-65
2021/07/21 08:27:42;;;;;;;8.98;6.85;;;28.20;57.70;;;;;;4343687;33;20591;-64
2021/07/21 08:30:13;;;;;;;9.65;6.75;;;28.30;57.80;;;;;;4318167;33;20071;-68
2021/07/21 08:32:45;;;;;;;10.90;6.43;;;28.60;56.30;;;;;;4332611;32;20082;-63
2021/07/21 08:35:12;;;;;;;9.55;6.15;;;28.70;54.40;;;;;;4346541;32;20067;-66
2021/07/21 08:37:39;;;;;;;11.50;7.05;;;28.40;54.50;;;;;;4321853;32;20081;-66
2021/07/21 08:40:07;;;;;;;10.45;6.65;;;28.70;54.20;;;;;;4330353;32;20178;-65
2021/07/21 08:42:34;;;;;;;9.40;6.65;;;28.60;54.30;;;;;;4339753;32;20077;-67
2021/07/21 08:45:00;;;;;;;9.05;6.57;;;28.70;52.40;;;;;;4334228;32;20102;-64
2021/07/21 08:47:27;;;;;;;9.32;6.15;;;29.10;52.70;;;;;;4344628;32;20086;-64
2021/07/21 08:49:53;;;;;;;8.05;6.07;;;29.10;48.40;;;;;;4360209;32;20097;-64
2021/07/21 08:52:21;;;;;;;8.57;5.90;;;29.20;48.20;;;;;;4320915;32;20094;-67
2021/07/21 08:54:48;;;;;;;12.50;7.05;;;29.30;49.00;;;;;;4332467;33;20170;-64
2021/07/21 08:57:16;;;;;;;9.70;6.20;;;29.60;51.30;;;;;;4328224;32;20078;-64
2021/07/21 08:59:43;;;;;;;10.65;6.20;;;29.40;50.90;;;;;;4334895;32;20059;-67
2021/07/21 09:02:14;;;;;;;11.02;7.05;;;29.50;50.80;;;;;;4334713;32;20070;-68
2021/07/21 09:04:41;;;;;;;11.43;7.35;;;28.90;56.30;;;;;;4332296;33;20441;-71
2021/07/21 09:07:07;;;;;;;8.43;6.85;;;28.80;56.40;;;;;;4321113;32;20066;-71
2021/07/21 09:09:34;;;;;;;9.32;6.72;;;28.40;56.60;;;;;;4331615;33;20063;-68
2021/07/21 09:12:00;;;;;;;9.07;6.50;;;28.60;56.80;;;;;;4334971;32;20602;-76
2021/07/21 09:14:30;;;;;;;9.93;6.45;;;28.50;56.80;;;;;;4333769;32;20266;-78
2021/07/21 09:17:09;;;;;;;10.00;7.07;;;28.60;56.40;;;;;;4336282;32;20193;-77
2021/07/21 09:19:41;;;;;;;9.75;6.82;;;28.70;55.10;;;;;;4349104;32;20173;-76
2021/07/21 09:22:28;;;;;;;9.95;5.68;;;28.90;53.00;;;;;;4338694;32;20425;-77
2021/07/21 09:25:18;;;;;;;8.90;6.57;;;29.80;52.50;;;;;;4350264;32;20227;-77
2021/07/21 09:27:48;;;;;;;9.20;6.07;;;30.00;49.60;;;;;;4337624;32;20153;-75
2021/07/21 09:30:25;;;;;;;11.68;7.20;;;30.10;49.60;;;;;;4325711;32;20519;-75
2021/07/21 09:33:09;;;;;;;10.52;7.05;;;28.80;49.60;;;;;;4351108;32;20117;-78
2021/07/21 09:35:47;;;;;;;9.15;6.20;;;28.90;49.50;;;;;;4350931;32;20161;-75
2021/07/21 09:38:16;;;;;;;7.55;5.60;;;29.60;50.30;;;;;;4351599;32;20073;-76
2021/07/21 09:40:45;;;;;;;11.68;6.45;;;29.70;47.00;;;;;;4325785;32;20063;-78
2021/07/21 09:43:19;;;;;;;9.82;6.18;;;29.20;46.40;;;;;;4337995;32;20074;-76
2021/07/21 09:45:46;;;;;;;8.18;5.65;;;29.30;46.60;;;;;;4350711;32;20078;-75
2021/07/21 09:48:13;;;;;;;9.63;6.47;;;29.90;46.40;;;;;;4337730;32;20159;-77
2021/07/21 09:50:41;;;;;;;9.93;6.35;;;28.90;46.40;;;;;;4325589;32;20087;-80
2021/07/21 09:53:10;;;;;;;8.57;6.22;;;28.70;47.00;;;;;;4350343;32;20084;-75
2021/07/21 09:55:37;;;;;;;10.85;6.57;;;29.50;44.70;;;;;;4325876;32;20517;-76
2021/07/21 09:58:26;;;;;;;8.73;6.80;;;29.70;45.10;;;;;;4325593;32;20159;-78
2021/07/21 10:00:53;;;;;;;9.57;5.68;;;29.30;44.70;;;;;;4341286;32;20070;-75
2021/07/21 10:03:22;;;;;;;8.32;6.70;;;29.80;43.10;;;;;;4327483;32;20082;-76
2021/07/21 10:06:09;;;;;;;9.88;6.85;;;29.40;43.60;;;;;;4316415;32;20088;-76
2021/07/21 10:08:43;;;;;;;8.40;5.78;;;29.60;44.80;;;;;;4328214;32;20092;-74
2021/07/21 10:11:34;;;;;;;10.77;6.60;;;29.50;44.90;;;;;;4353614;32;20148;-75
2021/07/21 10:14:03;;;;;;;12.30;6.72;;;29.90;44.10;;;;;;4342016;32;20171;-77
2021/07/21 10:16:47;;;;;;;9.77;6.35;;;30.40;42.30;;;;;;4352306;32;20070;-73
2021/07/21 10:19:15;;;;;;;12.32;6.70;;;30.30;43.80;;;;;;4357899;32;20073;-68
2021/07/21 10:21:49;;;;;;;9.95;6.70;;;30.10;43.00;;;;;;4359538;32;20581;-70
2021/07/21 10:24:15;;;;;;;12.35;6.72;;;29.90;41.50;;;;;;4350909;32;20089;-73
2021/07/21 10:26:42;;;;;;;9.25;5.90;;;29.80;42.70;;;;;;4351997;32;20090;-71
2021/07/21 10:29:09;;;;;;;10.13;6.95;;;29.80;43.20;;;;;;4365292;32;20066;-71
2021/07/21 10:31:37;;;;;;;9.75;6.10;;;29.90;43.40;;;;;;4353439;32;20130;-73
2021/07/21 10:34:03;;;;;;;9.95;6.45;;;29.50;46.60;;;;;;4350310;32;20077;-71
2021/07/21 10:36:30;;;;;;;8.07;5.90;;;29.60;47.00;;;;;;4362095;32;20081;-72
2021/07/21 10:38:57;;;;;;;11.07;6.20;;;30.80;44.30;;;;;;4352523;32;20089;-70
2021/07/21 10:41:25;;;;;;;10.27;6.68;;;30.70;42.10;;;;;;4337835;32;20169;-69
2021/07/21 10:43:54;;;;;;;8.68;6.32;;;30.60;46.10;;;;;;4338320;32;20154;-73
2021/07/21 10:46:30;;;;;;;8.20;5.97;;;30.00;46.10;;;;;;4322955;32;20122;-73
2021/07/21 10:49:49;;;;;;;11.63;6.28;;;29.30;49.20;;;;;;4351145;32;20066;-71
2021/07/21 11:00:30;;;;;;;10.38;6.22;;;29.60;45.80;;;;;;4363057;32;20097;-75
2021/07/21 11:03:28;;;;;;;10.85;6.25;;;29.80;46.20;;;;;;4349216;32;20102;-76
2021/07/21 11:06:07;;;;;;;11.00;6.30;;;29.20;45.70;;;;;;4333791;32;20062;-77
2021/07/21 11:08:44;;;;;;;9.75;6.15;;;29.30;44.90;;;;;;4345479;32;20078;-75
2021/07/21 11:11:20;;;;;;;8.38;5.60;;;29.70;44.10;;;;;;4351980;32;20101;-72
2021/07/21 11:13:58;;;;;;;8.70;5.95;;;29.90;43.70;;;;;;4338791;32;20058;-74
2021/07/21 11:16:40;;;;;;;9.07;6.65;;;30.40;41.90;;;;;;4348328;32;20087;-75
2021/07/21 11:19:42;;;;;;;8.77;6.00;;;30.30;42.20;;;;;;4354321;32;20181;-74
2021/07/21 11:22:33;;;;;;;7.50;5.93;;;30.70;42.10;;;;;;4357269;32;20082;-76
2021/07/21 11:25:15;;;;;;;8.52;5.87;;;30.40;42.00;;;;;;4355385;32;20108;-76
2021/07/21 11:28:03;;;;;;;9.70;6.35;;;29.90;44.00;;;;;;4351468;32;20090;-65
2021/07/21 11:31:00;;;;;;;8.73;5.95;;;30.00;44.90;;;;;;4359692;32;20568;-67
2021/07/21 11:33:54;;;;;;;7.62;5.28;;;30.40;42.60;;;;;;4352220;32;20155;-69
2021/07/21 11:36:57;;;;;;;10.85;6.10;;;30.20;41.70;;;;;;4348840;32;20504;-64
2021/07/21 11:39:44;;;;;;;7.93;6.20;;;29.90;43.40;;;;;;4361969;32;20582;-65
2021/07/21 11:42:30;;;;;;;7.93;5.90;;;30.40;42.30;;;;;;4363722;32;20086;-64
2021/07/21 11:45:08;;;;;;;7.00;5.53;;;29.70;43.40;;;;;;4361874;32;20089;-65
2021/07/21 11:47:39;;;;;;;10.45;6.45;;;30.00;43.20;;;;;;4349705;32;20082;-65
2021/07/21 11:50:18;;;;;;;10.68;6.50;;;29.40;45.00;;;;;;4360222;32;20529;-65
2021/07/21 11:52:50;;;;;;;12.93;6.15;;;29.70;44.80;;;;;;4364263;32;20070;-65
2021/07/21 11:55:16;;;;;;;7.87;5.97;;;29.90;44.70;;;;;;4351905;32;20073;-64
2021/07/21 11:57:43;;;;;;;9.88;6.12;;;30.00;44.60;;;;;;4348526;32;20522;-64
2021/07/21 12:00:10;;;;;;;9.25;6.35;;;30.20;44.00;;;;;;4341131;32;20476;-66
2021/07/21 12:02:37;;;;;;;9.43;6.37;;;30.10;43.80;;;;;;4347825;32;20062;-66
2021/07/21 12:05:08;;;;;;;11.82;6.60;;;30.30;44.00;;;;;;4345911;32;20078;-66
2021/07/21 12:07:36;;;;;;;9.07;5.72;;;29.90;44.90;;;;;;4334885;32;20177;-69
2021/07/21 12:10:17;;;;;;;10.20;6.35;;;30.10;44.90;;;;;;4348276;32;20922;-69
2021/07/21 12:12:44;;;;;;;9.75;6.35;;;30.50;43.00;;;;;;4348244;32;20094;-69
2021/07/21 12:15:14;;;;;;;10.45;6.35;;;30.40;43.50;;;;;;4326524;32;20176;-67
2021/07/21 12:17:40;;;;;;;9.07;6.40;;;30.80;42.70;;;;;;4352328;32;20128;-70
2021/07/21 12:20:10;;;;;;;9.63;5.72;;;30.70;41.40;;;;;;4351283;32;20118;-65
2021/07/21 12:22:39;;;;;;;10.73;6.50;;;30.80;42.10;;;;;;4343897;32;20085;-67
2021/07/21 12:25:13;;;;;;;9.45;6.87;;;30.70;42.70;;;;;;4357163;32;20166;-66
2021/07/21 12:27:48;;;;;;;10.15;6.07;;;30.00;45.50;;;;;;4348737;32;20445;-64
2021/07/21 12:30:16;;;;;;;;;;;30.00;45.30;;;;;;4350240;32;20081;-65
2021/07/21 12:32:45;;;;;;;11.20;6.45;;;30.10;44.90;;;;;;4363783;32;19966;-68
2021/07/21 12:35:12;;;;;;;9.30;6.55;;;30.00;46.10;;;;;;4334779;32;20084;-72
2021/07/21 12:37:49;;;;;;;9.32;6.10;;;29.90;45.40;;;;;;4338186;32;20090;-69
2021/07/21 12:40:27;;;;;;;9.75;6.37;;;29.80;45.70;;;;;;4351551;32;20578;-68
2021/07/21 12:42:57;;;;;;;9.35;6.12;;;29.90;46.90;;;;;;4336639;32;20085;-70
2021/07/21 12:45:26;;;;;;;9.35;6.57;;;30.30;45.90;;;;;;4334918;32;20078;-66
2021/07/21 12:47:55;;;;;;;11.48;6.32;;;30.10;45.20;;;;;;4347102;32;20066;-68
2021/07/21 12:50:29;;;;;;;9.15;6.28;;;29.80;45.30;;;;;;4348021;32;20105;-69
2021/07/21 12:53:33;;;;;;;10.45;7.28;;;29.30;46.20;;;;;;4342313;32;20071;-69
2021/07/21 12:55:57;;;;;;;12.15;6.45;;;29.60;45.80;;;;;;4343905;32;20258;-70
2021/07/21 12:58:24;;;;;;;10.90;6.53;;;30.00;46.10;;;;;;4346763;32;20146;-68
2021/07/21 13:00:52;;;;;;;9.25;6.65;;;29.50;46.30;;;;;;4348802;32;20512;-72
2021/07/21 13:03:20;;;;;;;9.48;6.62;;;29.70;46.10;;;;;;4318178;32;20086;-77
2021/07/21 13:05:54;;;;;;;9.32;5.82;;;29.80;44.90;;;;;;4333600;32;20070;-77
2021/07/21 13:08:34;;;;;;;9.18;6.40;;;30.00;44.60;;;;;;4329497;32;20178;-76